Briefing drone pour Bourg-de-peage

Rechercher une autre localisation

Conditions de vol :


Nous sommes le : Jeudi 24 septembre 2020
Il est 17:49 UTC (19:49 LT)

Lever de soleil : 05:03 UTC (07:03 LT)
Coucher de soleil : 18:00 UTC (20:00 LT)

Météo

L'essentiel des conditions de vol

VIGILANCE MÉTÉO FRANCE - Drôme (26)
Vigilance Jaune : Orages
METAR de LFLU
LFLU 241730Z AUTO 18008KT 9999 NSC 20/18 Q1006

Date d'émission: 24/09/2020
Heure d'émission: 17:30 UTC
Vent: 180° pour 8 KT (15 km/h)
Visibilité horizontale: > 10 km
Plafond : Pas de nuages significatifs (NSC)
Température: 20 °C
Point de rosée: 18 °C
Humidité: 88%
Pression (QNH): 1006 hPa
Prévision 24h pour Valence (10 km)
Vent : 313° pour 4 KT (14 km/h)
Temperature Maxi: 15 °C
Temperature Min: 15 °C
Humidité : 49%
Condition : Légère pluie



Warning: count(): Parameter must be an array or an object that implements Countable in /homepages/6/d509196549/htdocs/droneoxygene/briefing.php on line 743
WEBCAM POUR BOURG-DE-PEAGE

Réglementation

Voler en sécurité

CARTES AERONAUTIQUE 1/500.000
CARTES VAC (LFLU)
SUP AIP




Chargement des AIP...
NOTAM (BOURG-DE-PEAGE + Terrain à proximité / FIR )




Chargement des NOTAMS...
CONTACT PREFECTURE 26
Drôme (26) : ddt-sdsr@drome.gouv.fr


Avertissement : Les données mises à disposition sont indicatives. Oxygène Drone ne pourra être tenu responsable de dégâts causés aux biens et aux personnes.